Time;durP1;ratioP1;P1;durP2;ratioP2;P2;SDS_P1;SDS_P2;PMS_P1;PMS_P2;Temp;Humidity;BMP_temperature;BMP_pressure;BME280_temperature;BME280_humidity;BME280_pressure;Samples;Min_cycle;Max_cycle;Signal;HPM_P1;HPM_P2
2023/01/14 00:01:20;;;;;;;;;;;3.50;99.90;;;;;;5099784;28;19938;-73
2023/01/14 00:03:49;;;;;;;;;;;3.50;99.90;;;;;;5107792;28;19932;-73
2023/01/14 00:06:20;;;;;;;;;;;3.60;99.90;;;;;;5089246;28;19973;-73
2023/01/14 00:08:56;;;;;;;;;;;3.60;99.90;;;;;;5080971;28;20013;-73
2023/01/14 00:14:15;;;;;;;;;;;3.60;99.90;;;;;;5094415;28;20402;-73
2023/01/14 00:16:47;;;;;;;;;;;3.60;99.90;;;;;;5107943;28;19924;-73
2023/01/14 00:19:16;;;;;;;;;;;3.60;99.90;;;;;;5094956;28;19924;-74
2023/01/14 00:21:45;;;;;;;;;;;3.50;99.90;;;;;;5096449;28;19992;-72
2023/01/14 00:24:15;;;;;;;;;;;3.50;99.90;;;;;;5107308;28;19924;-73
2023/01/14 00:26:44;;;;;;;;;;;3.50;99.90;;;;;;5100539;28;19948;-73
2023/01/14 00:29:18;;;;;;;;;;;3.50;99.90;;;;;;5091506;28;20398;-73
2023/01/14 00:31:47;;;;;;;;;;;3.50;99.90;;;;;;5097679;28;20150;-73
2023/01/14 00:34:16;;;;;;;;;;;3.50;99.90;;;;;;5107490;28;20018;-72
2023/01/14 00:36:47;;;;;;;;;;;3.50;99.90;;;;;;5104995;28;19924;-72
2023/01/14 00:39:20;;;;;;;;;;;3.50;99.90;;;;;;5088134;28;19962;-71
2023/01/14 00:41:49;;;;;;;;;;;3.50;99.90;;;;;;5077006;28;19990;-72
2023/01/14 00:44:19;;;;;;;;;;;3.60;99.90;;;;;;5089813;28;19927;-73
2023/01/14 00:46:53;;;;;;;;;;;3.60;99.90;;;;;;5102882;28;20370;-72
2023/01/14 00:49:24;;;;;;;;;;;3.60;99.90;;;;;;5085133;28;19935;-72
2023/01/14 00:51:52;;;;;;;;;;;3.60;99.90;;;;;;5106783;28;19927;-73
2023/01/14 00:54:22;;;;;;;;;;;3.70;99.90;;;;;;5090404;28;19924;-69
2023/01/14 00:56:51;;;;;;;;;;;3.70;99.90;;;;;;5086144;28;20005;-72
2023/01/14 00:59:21;;;;;;;;;;;3.80;99.90;;;;;;5104273;28;19999;-73
2023/01/14 01:01:51;;;;;;;;;;;3.80;99.90;;;;;;5097324;28;19924;-72
2023/01/14 01:04:21;;;;;;;;;;;3.80;99.90;;;;;;5083941;28;19924;-73
2023/01/14 01:06:50;;;;;;;;;;;3.90;99.90;;;;;;5076413;28;20239;-72
2023/01/14 01:09:19;;;;;;;;;;;3.80;99.90;;;;;;5077864;28;20015;-72
2023/01/14 01:11:48;;;;;;;;;;;3.80;99.90;;;;;;5083935;28;19924;-73
2023/01/14 01:14:18;;;;;;;;;;;3.90;99.90;;;;;;5090773;28;20023;-73
2023/01/14 01:16:47;;;;;;;;;;;3.90;99.90;;;;;;5109803;28;19984;-72
2023/01/14 01:19:17;;;;;;;;;;;3.90;99.90;;;;;;5103893;28;20110;-73
2023/01/14 01:21:47;;;;;;;;;;;3.90;99.90;;;;;;5100496;28;20018;-72
2023/01/14 01:24:16;;;;;;;;;;;3.90;99.90;;;;;;5095270;28;19967;-71
2023/01/14 01:26:48;;;;;;;;;;;4.00;99.90;;;;;;5105061;28;19953;-73
2023/01/14 01:29:25;;;;;;;;;;;4.00;99.90;;;;;;5077298;28;19986;-73
2023/01/14 01:31:59;;;;;;;;;;;4.10;99.90;;;;;;5097183;28;19928;-73
2023/01/14 01:34:28;;;;;;;;;;;4.10;99.90;;;;;;5105463;28;19928;-73
2023/01/14 01:36:59;;;;;;;;;;;4.10;99.90;;;;;;5103965;28;19935;-73
2023/01/14 01:39:54;;;;;;;;;;;4.20;99.90;;;;;;5100725;28;20277;-73
2023/01/14 01:42:28;;;;;;;;;;;4.20;99.90;;;;;;5085940;28;19973;-71
2023/01/14 01:45:08;;;;;;;;;;;4.20;99.90;;;;;;5103389;28;20010;-73
2023/01/14 01:47:36;;;;;;;;;;;4.20;99.90;;;;;;5102327;28;19924;-73
2023/01/14 01:50:05;;;;;;;;;;;4.20;99.90;;;;;;5081670;28;19923;-73
2023/01/14 01:52:35;;;;;;;;;;;4.20;99.90;;;;;;5086971;28;19924;-73
2023/01/14 01:55:08;;;;;;;;;;;4.20;99.90;;;;;;5101141;28;19931;-73
2023/01/14 01:57:37;;;;;;;;;;;4.20;99.90;;;;;;5082251;28;19931;-72
2023/01/14 02:00:07;;;;;;;;;;;4.30;99.90;;;;;;5100908;28;19928;-72
2023/01/14 02:02:39;;;;;;;;;;;4.30;99.90;;;;;;5102285;28;19924;-73
2023/01/14 02:05:08;;;;;;;;;;;4.30;99.90;;;;;;5104252;28;19935;-72
2023/01/14 02:07:36;;;;;;;;;;;4.40;99.90;;;;;;5108320;28;19924;-71
2023/01/14 02:10:04;;;;;;;;;;;4.40;99.90;;;;;;5067884;28;19924;-73
2023/01/14 02:12:38;;;;;;;;;;;4.40;99.90;;;;;;5105534;28;19934;-73
2023/01/14 02:15:27;;;;;;;;;;;4.40;99.90;;;;;;5093775;28;19931;-73
2023/01/14 02:18:34;;;;;;;;;;;4.40;99.90;;;;;;5109002;28;19924;-73
2023/01/14 02:21:20;;;;;;;;;;;4.40;99.90;;;;;;5038101;28;20032;-71
2023/01/14 02:24:08;;;;;;;;;;;4.40;99.90;;;;;;5047312;28;19987;-71
2023/01/14 02:26:57;;;;;;;;;;;4.40;99.90;;;;;;5083771;28;19924;-71
2023/01/14 02:29:45;;;;;;;;;;;4.40;99.90;;;;;;5098263;28;19924;-72
2023/01/14 02:32:35;;;;;;;;;;;4.30;99.90;;;;;;5091055;28;19931;-71
2023/01/14 02:35:28;;;;;;;;;;;4.40;99.90;;;;;;5092784;28;19946;-72
2023/01/14 02:38:05;;;;;;;;;;;4.40;99.90;;;;;;5083420;28;20577;-73
2023/01/14 02:40:48;;;;;;;;;;;4.40;99.90;;;;;;5093373;28;19923;-72
2023/01/14 02:46:41;;;;;;;;;;;4.40;99.90;;;;;;5117028;27;19924;-73
2023/01/14 02:49:11;;;;;;;;;;;4.40;99.90;;;;;;5097833;28;19924;-73
2023/01/14 02:51:43;;;;;;;;;;;4.50;99.90;;;;;;5105843;28;19937;-73
2023/01/14 02:54:11;;;;;;;;;;;4.50;99.90;;;;;;5092353;28;20002;-73
2023/01/14 02:56:40;;;;;;;;;;;4.50;99.90;;;;;;5070558;28;19935;-73
2023/01/14 02:59:44;;;;;;;;;;;4.50;99.90;;;;;;5091371;28;19924;-74
2023/01/14 03:02:34;;;;;;;;;;;4.50;99.90;;;;;;5029600;28;20360;-73
2023/01/14 03:05:11;;;;;;;;;;;4.50;99.90;;;;;;5075902;28;19928;-72
2023/01/14 03:07:49;;;;;;;;;;;4.50;99.90;;;;;;5089881;28;19928;-73
2023/01/14 03:10:29;;;;;;;;;;;4.50;99.90;;;;;;5096357;28;20224;-73
2023/01/14 03:13:14;;;;;;;;;;;4.50;99.90;;;;;;5097478;28;19985;-73
2023/01/14 03:15:48;;;;;;;;;;;4.60;99.90;;;;;;5074861;28;19924;-73
2023/01/14 03:18:34;;;;;;;;;;;4.60;99.90;;;;;;5107682;28;19935;-73
2023/01/14 03:21:04;;;;;;;;;;;4.60;99.90;;;;;;5120889;27;20390;-73
2023/01/14 03:23:36;;;;;;;;;;;4.60;99.90;;;;;;5072070;28;20030;-73
2023/01/14 03:26:10;;;;;;;;;;;4.60;99.90;;;;;;5090073;28;20383;-73
2023/01/14 03:28:46;;;;;;;;;;;4.50;99.90;;;;;;5079396;28;20527;-74
2023/01/14 03:31:22;;;;;;;;;;;4.50;99.90;;;;;;5098363;28;20010;-71
2023/01/14 03:33:55;;;;;;;;;;;4.40;99.90;;;;;;5104446;27;20038;-73
2023/01/14 03:36:28;;;;;;;;;;;4.40;99.90;;;;;;5085401;28;19925;-73
2023/01/14 03:39:03;;;;;;;;;;;4.40;99.90;;;;;;5095234;28;19968;-73
2023/01/14 03:44:25;;;;;;;;;;;4.30;99.90;;;;;;5098772;28;19930;-74
2023/01/14 03:46:54;;;;;;;;;;;4.30;99.90;;;;;;5092417;28;19951;-74
2023/01/14 03:49:23;;;;;;;;;;;4.30;99.90;;;;;;5073305;28;20018;-74
2023/01/14 03:51:58;;;;;;;;;;;4.20;99.90;;;;;;5091560;28;19928;-74
2023/01/14 03:54:34;;;;;;;;;;;4.20;99.90;;;;;;5081526;28;19924;-73
2023/01/14 03:57:09;;;;;;;;;;;4.20;99.90;;;;;;5099951;28;19933;-74
2023/01/14 03:59:49;;;;;;;;;;;4.20;99.90;;;;;;5104182;28;19924;-74
2023/01/14 04:02:20;;;;;;;;;;;4.30;99.90;;;;;;5103198;27;19931;-74
2023/01/14 04:04:49;;;;;;;;;;;4.20;99.90;;;;;;5091340;28;19928;-74
2023/01/14 04:07:18;;;;;;;;;;;4.20;99.90;;;;;;5092525;28;19927;-74
2023/01/14 04:09:49;;;;;;;;;;;4.20;99.90;;;;;;5081018;28;19935;-73
2023/01/14 04:12:17;;;;;;;;;;;4.20;99.90;;;;;;5082256;28;20335;-73
2023/01/14 04:17:37;;;;;;;;;;;4.20;99.90;;;;;;5108560;28;19931;-73
2023/01/14 04:20:07;;;;;;;;;;;4.20;99.90;;;;;;5097757;28;19931;-74
2023/01/14 04:22:44;;;;;;;;;;;4.20;99.90;;;;;;5109828;27;19924;-70
2023/01/14 04:25:13;;;;;;;;;;;4.10;99.90;;;;;;5087528;28;20423;-74
2023/01/14 04:27:42;;;;;;;;;;;4.10;99.90;;;;;;5094193;28;20005;-73
2023/01/14 04:30:10;;;;;;;;;;;4.00;99.90;;;;;;5098744;28;19928;-73
2023/01/14 04:32:40;;;;;;;;;;;4.00;99.90;;;;;;5093844;28;19924;-73
2023/01/14 04:35:10;;;;;;;;;;;4.00;99.90;;;;;;5101086;28;19931;-74
2023/01/14 04:37:41;;;;;;;;;;;4.00;99.90;;;;;;5106586;28;19924;-71
2023/01/14 04:40:18;;;;;;;;;;;3.90;99.90;;;;;;5079907;28;19928;-74
2023/01/14 04:42:52;;;;;;;;;;;4.00;99.90;;;;;;5090603;28;19923;-72
2023/01/14 04:45:21;;;;;;;;;;;4.00;99.90;;;;;;5101132;28;19935;-71
2023/01/14 04:47:50;;;;;;;;;;;4.00;99.90;;;;;;5097279;28;19949;-73
2023/01/14 04:50:30;;;;;;;;;;;4.00;99.90;;;;;;5078587;28;19923;-73
2023/01/14 04:53:06;;;;;;;;;;;4.00;99.90;;;;;;5094779;28;19931;-73
2023/01/14 04:55:37;;;;;;;;;;;4.00;99.90;;;;;;5087150;28;20026;-73
2023/01/14 04:58:06;;;;;;;;;;;4.00;99.90;;;;;;5089622;28;19930;-73
2023/01/14 05:00:37;;;;;;;;;;;3.90;99.90;;;;;;5104811;28;19981;-73
2023/01/14 05:03:07;;;;;;;;;;;3.90;99.90;;;;;;5101764;28;19936;-73
2023/01/14 05:05:37;;;;;;;;;;;3.80;99.90;;;;;;5099852;28;19928;-73
2023/01/14 05:08:06;;;;;;;;;;;3.70;99.90;;;;;;5086985;28;19923;-73
2023/01/14 05:10:38;;;;;;;;;;;3.70;99.90;;;;;;5106955;28;19928;-74
2023/01/14 05:13:07;;;;;;;;;;;3.70;99.90;;;;;;5095130;28;19927;-74
2023/01/14 05:15:41;;;;;;;;;;;3.70;99.90;;;;;;5105355;28;19931;-74
2023/01/14 05:18:11;;;;;;;;;;;3.70;99.90;;;;;;5107192;28;19974;-73
2023/01/14 05:20:40;;;;;;;;;;;3.70;99.90;;;;;;5114451;28;20017;-73
2023/01/14 05:23:10;;;;;;;;;;;3.70;99.90;;;;;;5106833;28;19935;-71
2023/01/14 05:25:40;;;;;;;;;;;3.60;99.90;;;;;;5105474;28;19928;-73
2023/01/14 05:28:13;;;;;;;;;;;3.60;99.90;;;;;;5095648;28;20019;-73
2023/01/14 05:30:46;;;;;;;;;;;3.60;99.90;;;;;;5097310;28;19962;-72
2023/01/14 05:33:16;;;;;;;;;;;3.60;99.90;;;;;;5103434;28;19931;-72
2023/01/14 05:35:46;;;;;;;;;;;3.60;99.90;;;;;;5086651;28;19924;-74
2023/01/14 05:38:15;;;;;;;;;;;3.60;99.90;;;;;;5095317;28;20028;-73
2023/01/14 05:40:44;;;;;;;;;;;3.50;99.90;;;;;;5076688;28;19927;-73
2023/01/14 05:46:05;;;;;;;;;;;3.50;99.90;;;;;;5100669;28;20022;-73
2023/01/14 05:48:35;;;;;;;;;;;3.50;99.90;;;;;;5095337;28;19993;-73
2023/01/14 05:51:04;;;;;;;;;;;3.50;99.90;;;;;;5100360;28;19931;-74
2023/01/14 05:53:34;;;;;;;;;;;3.50;99.90;;;;;;5100380;28;19981;-73
2023/01/14 05:56:03;;;;;;;;;;;3.50;99.90;;;;;;5082988;28;19947;-72
2023/01/14 05:58:32;;;;;;;;;;;3.50;99.90;;;;;;5095480;28;19977;-73
2023/01/14 06:06:39;;;;;;;;;;;3.60;99.90;;;;;;5106032;28;19928;-73
2023/01/14 06:09:09;;;;;;;;;;;3.60;99.90;;;;;;5102363;28;20384;-73
2023/01/14 06:12:01;;;;;;;;;;;3.70;99.90;;;;;;5099238;28;19924;-73
2023/01/14 06:14:33;;;;;;;;;;;3.70;99.90;;;;;;5087735;28;20454;-72
2023/01/14 06:17:08;;;;;;;;;;;3.80;99.90;;;;;;5090414;28;19959;-71
2023/01/14 06:19:39;;;;;;;;;;;3.80;99.90;;;;;;5099425;28;19931;-73
2023/01/14 06:22:07;;;;;;;;;;;3.90;99.90;;;;;;5084072;28;19963;-73
2023/01/14 06:24:37;;;;;;;;;;;3.80;99.90;;;;;;5090528;28;19934;-73
2023/01/14 06:27:05;;;;;;;;;;;3.80;99.90;;;;;;5080506;28;20367;-71
2023/01/14 06:29:43;;;;;;;;;;;3.80;99.90;;;;;;5099983;28;19935;-74
2023/01/14 06:32:13;;;;;;;;;;;3.80;99.90;;;;;;5065941;28;19935;-73
2023/01/14 06:34:41;;;;;;;;;;;3.80;99.90;;;;;;5092143;28;19973;-73
2023/01/14 06:37:11;;;;;;;;;;;3.70;99.90;;;;;;5102992;28;19966;-73
2023/01/14 06:39:40;;;;;;;;;;;3.70;99.90;;;;;;5100777;28;19924;-74
2023/01/14 06:42:09;;;;;;;;;;;3.70;99.90;;;;;;5090909;27;19923;-72
2023/01/14 06:44:38;;;;;;;;;;;3.60;99.90;;;;;;5105556;27;20068;-73
2023/01/14 06:47:07;;;;;;;;;;;3.60;99.90;;;;;;5099824;27;19931;-73
2023/01/14 06:49:37;;;;;;;;;;;3.60;99.90;;;;;;5099906;27;19963;-73
2023/01/14 06:52:07;;;;;;;;;;;3.60;99.90;;;;;;5077398;28;19932;-72
2023/01/14 06:54:36;;;;;;;;;;;3.50;99.90;;;;;;5081723;28;19981;-71
2023/01/14 06:57:05;;;;;;;;;;;3.50;99.90;;;;;;5094169;28;19928;-73
2023/01/14 06:59:34;;;;;;;;;;;3.40;99.90;;;;;;5078011;28;20309;-73
2023/01/14 07:02:04;;;;;;;;;;;3.40;99.90;;;;;;5089640;28;19924;-74
2023/01/14 07:04:33;;;;;;;;;;;3.40;99.90;;;;;;5102646;28;19978;-73
2023/01/14 07:07:03;;;;;;;;;;;3.30;99.90;;;;;;5101140;28;20350;-74
2023/01/14 07:09:32;;;;;;;;;;;3.30;99.90;;;;;;5062671;28;19931;-74
2023/01/14 07:12:01;;;;;;;;;;;3.30;99.90;;;;;;5106084;28;20319;-73
2023/01/14 07:14:30;;;;;;;;;;;3.30;99.90;;;;;;5100358;28;19927;-73
2023/01/14 07:17:01;;;;;;;;;;;3.30;99.90;;;;;;5091788;28;19928;-71
2023/01/14 07:19:33;;;;;;;;;;;3.30;99.90;;;;;;5097974;28;19924;-73
2023/01/14 07:22:02;;;;;;;;;;;3.20;99.90;;;;;;5086156;28;19966;-73
2023/01/14 07:24:30;;;;;;;;;;;3.30;99.90;;;;;;5104517;28;19951;-72
2023/01/14 07:27:01;;;;;;;;;;;3.30;99.90;;;;;;5103341;28;20420;-73
2023/01/14 07:29:35;;;;;;;;;;;3.30;99.90;;;;;;5105653;28;19932;-72
2023/01/14 07:32:05;;;;;;;;;;;3.40;99.90;;;;;;5100168;28;19928;-72
2023/01/14 07:34:36;;;;;;;;;;;3.40;99.90;;;;;;5090767;28;20314;-73
2023/01/14 07:37:07;;;;;;;;;;;3.40;99.90;;;;;;5105215;27;19963;-72
2023/01/14 07:39:37;;;;;;;;;;;3.40;99.90;;;;;;5116201;27;19927;-73
2023/01/14 07:42:07;;;;;;;;;;;3.30;99.90;;;;;;5089723;28;19928;-73
2023/01/14 07:44:54;;;;;;;;;;;3.30;99.90;;;;;;5099444;28;19925;-71
2023/01/14 07:47:28;;;;;;;;;;;3.30;99.90;;;;;;5087854;27;19970;-71
2023/01/14 07:49:59;;;;;;;;;;;3.30;99.90;;;;;;5104102;28;19924;-73
2023/01/14 07:52:30;;;;;;;;;;;3.30;99.90;;;;;;5104724;27;20517;-73
2023/01/14 07:55:00;;;;;;;;;;;3.20;99.90;;;;;;5109494;27;19928;-73
2023/01/14 07:57:35;;;;;;;;;;;3.30;99.90;;;;;;5110982;27;20030;-72
2023/01/14 08:00:06;;;;;;;;;;;3.30;99.90;;;;;;5104251;28;19946;-72
2023/01/14 08:02:38;;;;;;;;;;;3.30;99.90;;;;;;5109191;28;20014;-72
2023/01/14 08:05:06;;;;;;;;;;;3.40;99.90;;;;;;5107216;28;19935;-73
2023/01/14 08:07:38;;;;;;;;;;;3.50;99.90;;;;;;5107637;28;19951;-73
2023/01/14 08:10:32;;;;;;;;;;;3.60;99.90;;;;;;5107781;28;19919;-73
2023/01/14 08:13:01;;;;;;;;;;;3.70;99.90;;;;;;5107146;28;19924;-73
2023/01/14 08:15:35;;;;;;;;;;;3.70;99.90;;;;;;5106600;28;19928;-72
2023/01/14 08:18:03;;;;;;;;;;;3.90;99.90;;;;;;5108551;28;19924;-70
2023/01/14 08:20:33;;;;;;;;;;;4.00;99.90;;;;;;5129083;28;19969;-71
2023/01/14 08:23:07;;;;;;;;;;;4.00;99.90;;;;;;5110090;27;20019;-72
2023/01/14 08:25:43;;;;;;;;;;;4.20;99.90;;;;;;5086744;28;19930;-71
2023/01/14 08:28:13;;;;;;;;;;;4.20;99.90;;;;;;5103378;27;19963;-73
2023/01/14 08:30:44;;;;;;;;;;;4.30;99.90;;;;;;5097714;28;19954;-73
2023/01/14 08:33:15;;;;;;;;;;;4.40;99.90;;;;;;5102139;28;19924;-72
2023/01/14 08:35:42;;;;;;;;;;;4.50;99.90;;;;;;5091291;28;19927;-72
2023/01/14 08:38:14;;;;;;;;;;;4.60;99.90;;;;;;5105284;28;20393;-72
2023/01/14 08:40:40;;;;;;;;;;;4.70;99.90;;;;;;5086587;28;19924;-73
2023/01/14 08:43:12;;;;;;;;;;;4.70;99.90;;;;;;5099671;28;19981;-73
2023/01/14 08:45:38;;;;;;;;;;;4.80;99.90;;;;;;5100957;28;19930;-73
2023/01/14 08:48:05;;;;;;;;;;;4.80;99.90;;;;;;5106160;28;19928;-72
2023/01/14 08:50:31;;;;;;;;;;;4.90;99.90;;;;;;5100489;28;19947;-73
2023/01/14 08:53:03;;;;;;;;;;;5.00;99.90;;;;;;5100274;28;20393;-73
2023/01/14 08:55:35;;;;;;;;;;;5.10;99.90;;;;;;5103176;28;19997;-72
2023/01/14 08:58:07;;;;;;;;;;;5.20;99.90;;;;;;5104862;28;20023;-70
2023/01/14 09:00:34;;;;;;;;;;;5.20;99.90;;;;;;5104564;28;19973;-73
2023/01/14 09:03:05;;;;;;;;;;;5.20;99.90;;;;;;5105774;28;19931;-73
2023/01/14 09:05:32;;;;;;;;;;;5.30;99.90;;;;;;5106941;28;19923;-73
2023/01/14 09:19:19;;;;;;;;;;;5.60;99.90;;;;;;5099194;28;19932;-71
2023/01/14 09:21:50;;;;;;;;;;;5.70;99.90;;;;;;5099206;28;19928;-73
2023/01/14 09:24:22;;;;;;;;;;;5.70;99.90;;;;;;5100075;28;19928;-73
2023/01/14 09:26:53;;;;;;;;;;;5.80;99.90;;;;;;5090626;28;19923;-73
2023/01/14 09:29:25;;;;;;;;;;;5.80;99.90;;;;;;5104293;28;20535;-71
2023/01/14 09:31:57;;;;;;;;;;;5.80;99.90;;;;;;5109193;28;20370;-70
2023/01/14 09:34:27;;;;;;;;;;;5.80;99.90;;;;;;5096661;28;19924;-70
2023/01/14 09:36:56;;;;;;;;;;;5.80;99.90;;;;;;5090342;28;20370;-70
2023/01/14 09:39:26;;;;;;;;;;;5.90;99.90;;;;;;5091619;28;20169;-70
2023/01/14 09:41:58;;;;;;;;;;;6.00;99.90;;;;;;5096802;28;20394;-70
2023/01/14 09:44:27;;;;;;;;;;;6.00;99.90;;;;;;5104860;28;19924;-71
2023/01/14 09:46:56;;;;;;;;;;;6.00;99.90;;;;;;5098094;28;19963;-71
2023/01/14 09:49:27;;;;;;;;;;;6.10;99.90;;;;;;5106705;28;20354;-70
2023/01/14 09:52:00;;;;;;;;;;;6.20;99.90;;;;;;5110174;27;19923;-71
2023/01/14 09:54:38;;;;;;;;;;;6.30;99.90;;;;;;5083070;28;19927;-72
2023/01/14 09:57:17;;;;;;;;;;;6.30;99.90;;;;;;5103032;27;20267;-71
2023/01/14 10:00:03;;;;;;;;;;;6.40;99.90;;;;;;5107584;27;19925;-72
2023/01/14 10:02:46;;;;;;;;;;;6.40;99.90;;;;;;5111834;27;19927;-71
2023/01/14 10:05:15;;;;;;;;;;;6.50;99.90;;;;;;5105134;28;20480;-71
2023/01/14 10:07:45;;;;;;;;;;;6.60;99.90;;;;;;5113033;28;19931;-71
2023/01/14 10:10:21;;;;;;;;;;;6.60;99.90;;;;;;5104541;27;20490;-72
2023/01/14 10:12:50;;;;;;;;;;;6.60;99.90;;;;;;5101907;28;19928;-71
2023/01/14 10:15:27;;;;;;;;;;;6.70;99.90;;;;;;5108124;28;20443;-72
2023/01/14 10:18:02;;;;;;;;;;;6.70;99.90;;;;;;5111986;28;20382;-71
2023/01/14 10:20:37;;;;;;;;;;;6.80;99.90;;;;;;5109452;28;19946;-72
2023/01/14 10:23:21;;;;;;;;;;;6.80;99.90;;;;;;5094469;28;19959;-71
2023/01/14 10:25:57;;;;;;;;;;;6.80;99.90;;;;;;5102651;28;19928;-74
2023/01/14 10:28:27;;;;;;;;;;;6.80;99.90;;;;;;5101589;28;19924;-73
2023/01/14 10:30:58;;;;;;;;;;;6.90;99.90;;;;;;5108400;27;19931;-73
2023/01/14 10:33:26;;;;;;;;;;;6.90;99.90;;;;;;5107094;28;19928;-72
2023/01/14 10:36:16;;;;;;;;;;;6.90;99.90;;;;;;5107323;28;19955;-71
2023/01/14 10:38:45;;;;;;;;;;;6.90;99.90;;;;;;5092732;28;19928;-70
2023/01/14 10:41:16;;;;;;;;;;;6.90;99.90;;;;;;5101473;28;19932;-72
2023/01/14 10:43:44;;;;;;;;;;;7.00;99.90;;;;;;5087492;27;19923;-73
2023/01/14 10:46:19;;;;;;;;;;;7.00;99.90;;;;;;5111558;28;20336;-71
2023/01/14 10:48:54;;;;;;;;;;;7.00;99.90;;;;;;5096375;28;19928;-71
2023/01/14 10:51:50;;;;;;;;;;;7.10;99.90;;;;;;5077383;28;20391;-71
2023/01/14 10:54:20;;;;;;;;;;;7.10;99.90;;;;;;5084182;27;20391;-71
2023/01/14 10:56:52;;;;;;;;;;;7.10;99.90;;;;;;5097397;28;20408;-70
2023/01/14 10:59:39;;;;;;;;;;;7.20;99.90;;;;;;5104942;27;19931;-71
2023/01/14 11:02:22;;;;;;;;;;;7.20;99.90;;;;;;5092228;28;19928;-72
2023/01/14 11:04:50;;;;;;;;;;;7.30;99.90;;;;;;5098667;28;19931;-70
2023/01/14 11:07:28;;;;;;;;;;;7.30;99.90;;;;;;5077151;28;20317;-71
2023/01/14 11:09:59;;;;;;;;;;;7.30;99.90;;;;;;5109301;28;19935;-72
2023/01/14 11:12:31;;;;;;;;;;;7.40;99.90;;;;;;5118668;28;19934;-72
2023/01/14 11:15:00;;;;;;;;;;;7.40;99.90;;;;;;5104653;28;19945;-71
2023/01/14 11:17:31;;;;;;;;;;;7.50;99.90;;;;;;5102245;28;19949;-72
2023/01/14 11:20:23;;;;;;;;;;;7.60;99.90;;;;;;5110675;28;20305;-71
2023/01/14 11:22:55;;;;;;;;;;;7.60;99.90;;;;;;5095629;28;19967;-71
2023/01/14 11:25:28;;;;;;;;;;;7.60;99.90;;;;;;5112435;27;19935;-71
2023/01/14 11:28:06;;;;;;;;;;;7.70;99.90;;;;;;5108404;28;20617;-71
2023/01/14 11:30:43;;;;;;;;;;;7.80;99.90;;;;;;5095701;27;20382;-71
2023/01/14 11:33:23;;;;;;;;;;;7.90;99.90;;;;;;5106451;28;19957;-73
2023/01/14 11:35:57;;;;;;;;;;;8.00;99.90;;;;;;5109575;28;20398;-72
2023/01/14 11:38:43;;;;;;;;;;;8.00;99.90;;;;;;5108961;28;19923;-72
2023/01/14 11:41:33;;;;;;;;;;;8.10;99.90;;;;;;5110275;27;19927;-70
2023/01/14 11:44:15;;;;;;;;;;;8.20;99.90;;;;;;5104148;28;19977;-72
2023/01/14 11:46:44;;;;;;;;;;;8.30;99.90;;;;;;5103618;28;20500;-72
2023/01/14 11:49:16;;;;;;;;;;;8.30;99.90;;;;;;5096816;28;20416;-70
2023/01/14 11:51:59;;;;;;;;;;;8.40;99.90;;;;;;5095407;28;20890;-71
2023/01/14 11:54:38;;;;;;;;;;;8.50;99.90;;;;;;5100633;28;19966;-71
2023/01/14 11:57:16;;;;;;;;;;;8.60;99.90;;;;;;5107907;28;20335;-71
2023/01/14 11:59:51;;;;;;;;;;;8.60;99.90;;;;;;5116338;27;19931;-71
2023/01/14 12:02:38;;;;;;;;;;;8.70;99.90;;;;;;5095910;27;20007;-71
2023/01/14 12:05:17;;;;;;;;;;;8.80;99.90;;;;;;5089438;28;19928;-71
2023/01/14 12:07:48;;;;;;;;;;;8.80;99.90;;;;;;5090979;28;19934;-71
2023/01/14 12:10:35;;;;;;;;;;;8.90;99.90;;;;;;5074705;28;19931;-73
2023/01/14 12:18:58;;;;;;;;;;;9.10;99.90;;;;;;5089848;28;19924;-71
2023/01/14 12:21:31;;;;;;;;;;;9.10;99.90;;;;;;5078455;28;20442;-71
2023/01/14 12:24:05;;;;;;;;;;;9.10;99.90;;;;;;5086187;28;19973;-71
2023/01/14 12:26:38;;;;;;;;;;;9.20;99.90;;;;;;5099540;28;19928;-73
2023/01/14 12:29:11;;;;;;;;;;;9.20;99.90;;;;;;5103690;28;19924;-70
2023/01/14 12:31:43;;;;;;;;;;;9.20;99.90;;;;;;5106559;28;19928;-71
2023/01/14 12:34:24;;;;;;;;;;;9.20;99.90;;;;;;5089234;28;20653;-75
2023/01/14 12:37:14;;;;;;;;;;;9.30;99.90;;;;;;5098638;28;19928;-72
2023/01/14 12:45:41;;;;;;;;;;;9.30;99.90;;;;;;5104423;28;20008;-73
2023/01/14 12:48:14;;;;;;;;;;;9.30;99.90;;;;;;5086103;27;19931;-72
2023/01/14 12:50:46;;;;;;;;;;;9.20;99.90;;;;;;5087287;28;19928;-74
2023/01/14 12:53:22;;;;;;;;;;;9.20;99.90;;;;;;5092263;28;19924;-74
2023/01/14 12:55:58;;;;;;;;;;;9.20;99.90;;;;;;5111923;28;20390;-72
2023/01/14 12:58:35;;;;;;;;;;;9.20;99.90;;;;;;5107173;28;19935;-73
2023/01/14 13:01:06;;;;;;;;;;;9.20;99.90;;;;;;5087089;28;20027;-71
2023/01/14 13:03:48;;;;;;;;;;;9.20;99.90;;;;;;5111226;28;19934;-72
2023/01/14 13:06:26;;;;;;;;;;;9.30;99.90;;;;;;5104582;28;19969;-72
2023/01/14 13:08:58;;;;;;;;;;;9.20;99.90;;;;;;5108664;28;20110;-72
2023/01/14 13:11:39;;;;;;;;;;;9.20;99.90;;;;;;5095671;28;20297;-72
2023/01/14 13:14:18;;;;;;;;;;;9.20;99.90;;;;;;5103843;28;19965;-71
2023/01/14 13:16:48;;;;;;;;;;;9.20;99.90;;;;;;5086130;28;19966;-71
2023/01/14 13:19:26;;;;;;;;;;;9.20;99.90;;;;;;5104274;28;19931;-70
2023/01/14 13:22:11;;;;;;;;;;;9.20;99.90;;;;;;5078432;28;20023;-72
2023/01/14 13:24:45;;;;;;;;;;;9.20;99.90;;;;;;5102544;28;19923;-72
2023/01/14 13:27:32;;;;;;;;;;;9.20;99.90;;;;;;5094509;28;20012;-72
2023/01/14 13:30:16;;;;;;;;;;;9.10;99.90;;;;;;5110699;28;19923;-70
2023/01/14 13:32:53;;;;;;;;;;;9.10;99.90;;;;;;5108183;28;19932;-71
2023/01/14 13:35:24;;;;;;;;;;;9.10;99.90;;;;;;5113387;28;19930;-71
2023/01/14 13:37:58;;;;;;;;;;;9.10;99.90;;;;;;5111976;28;19924;-72
2023/01/14 13:40:35;;;;;;;;;;;9.10;99.90;;;;;;5095669;28;20519;-71
2023/01/14 13:43:06;;;;;;;;;;;9.10;99.90;;;;;;5090685;28;19924;-71
2023/01/14 13:45:42;;;;;;;;;;;9.00;99.90;;;;;;5109044;28;20339;-72
2023/01/14 13:48:18;;;;;;;;;;;9.00;99.90;;;;;;5095250;28;19975;-71
2023/01/14 13:50:49;;;;;;;;;;;8.90;99.90;;;;;;5108972;27;19974;-71
2023/01/14 13:53:18;;;;;;;;;;;8.90;99.90;;;;;;5110553;28;19923;-71
2023/01/14 13:55:55;;;;;;;;;;;8.90;99.90;;;;;;5094715;28;19984;-71
2023/01/14 13:58:45;;;;;;;;;;;8.90;99.90;;;;;;5110967;28;20010;-71
2023/01/14 14:01:21;;;;;;;;;;;8.90;99.90;;;;;;5093811;28;20023;-71
2023/01/14 14:03:51;;;;;;;;;;;8.90;99.90;;;;;;5108101;28;19998;-71
2023/01/14 14:06:20;;;;;;;;;;;8.80;99.90;;;;;;5112301;28;19924;-71
2023/01/14 14:08:52;;;;;;;;;;;8.80;99.90;;;;;;5105642;28;19930;-72
2023/01/14 14:11:23;;;;;;;;;;;8.80;99.90;;;;;;5107316;28;19931;-72
2023/01/14 14:14:07;;;;;;;;;;;8.80;99.90;;;;;;5110883;27;20306;-71
2023/01/14 14:16:48;;;;;;;;;;;8.80;99.90;;;;;;5107762;28;20480;-72
2023/01/14 14:19:20;;;;;;;;;;;8.80;99.90;;;;;;5089735;28;19955;-71
2023/01/14 14:22:10;;;;;;;;;;;8.80;99.90;;;;;;5108122;28;19935;-71
2023/01/14 14:24:52;;;;;;;;;;;8.80;99.90;;;;;;5109010;28;19939;-72
2023/01/14 14:27:37;;;;;;;;;;;8.70;99.90;;;;;;5110704;28;19924;-72
2023/01/14 14:30:10;;;;;;;;;;;8.70;99.90;;;;;;5109858;28;20501;-71
2023/01/14 14:32:40;;;;;;;;;;;8.60;99.90;;;;;;5109522;28;20293;-71
2023/01/14 14:35:12;;;;;;;;;;;8.60;99.90;;;;;;5110885;28;19963;-71
2023/01/14 14:37:46;;;;;;;;;;;8.50;99.90;;;;;;5111053;28;20340;-71
2023/01/14 14:40:26;;;;;;;;;;;8.50;99.90;;;;;;5090383;28;20007;-72
2023/01/14 14:42:55;;;;;;;;;;;8.50;99.90;;;;;;5093209;28;19936;-71
2023/01/14 14:45:30;;;;;;;;;;;8.50;99.90;;;;;;5107635;28;20295;-71
2023/01/14 14:48:17;;;;;;;;;;;8.40;99.90;;;;;;5106974;28;20287;-71
2023/01/14 14:50:46;;;;;;;;;;;8.40;99.90;;;;;;5110922;28;19989;-71
2023/01/14 14:53:34;;;;;;;;;;;8.40;99.90;;;;;;5092822;28;19923;-71
2023/01/14 14:56:10;;;;;;;;;;;8.30;99.90;;;;;;5110889;28;19954;-70
2023/01/14 14:58:51;;;;;;;;;;;8.30;99.90;;;;;;5111483;27;19923;-71
2023/01/14 15:01:34;;;;;;;;;;;8.30;99.90;;;;;;5089429;28;20329;-71
2023/01/14 15:04:04;;;;;;;;;;;8.30;99.90;;;;;;5089554;28;19924;-72
2023/01/14 15:06:35;;;;;;;;;;;8.30;99.90;;;;;;5092681;28;19936;-71
2023/01/14 15:09:08;;;;;;;;;;;8.30;99.90;;;;;;5090986;28;19924;-74
2023/01/14 15:11:46;;;;;;;;;;;8.30;99.90;;;;;;5086144;28;19947;-71
2023/01/14 15:14:19;;;;;;;;;;;8.40;99.90;;;;;;5082053;28;19924;-72
2023/01/14 15:16:52;;;;;;;;;;;8.30;99.90;;;;;;5098936;28;19928;-73
2023/01/14 15:19:19;;;;;;;;;;;8.30;99.90;;;;;;5096484;28;20353;-71
2023/01/14 15:21:50;;;;;;;;;;;8.30;99.90;;;;;;5087679;28;19927;-71
2023/01/14 15:24:21;;;;;;;;;;;8.30;99.90;;;;;;5089319;28;19927;-71
2023/01/14 15:26:51;;;;;;;;;;;8.30;99.90;;;;;;5104874;28;19947;-71
2023/01/14 15:29:22;;;;;;;;;;;8.30;99.90;;;;;;5104100;28;19923;-70
2023/01/14 15:31:52;;;;;;;;;;;8.20;99.90;;;;;;5107336;28;19924;-72
2023/01/14 15:34:26;;;;;;;;;;;8.20;99.90;;;;;;5103827;28;20015;-72
2023/01/14 15:37:07;;;;;;;;;;;8.30;99.90;;;;;;5103118;28;20019;-71
2023/01/14 15:39:39;;;;;;;;;;;8.30;99.90;;;;;;5095409;28;19928;-72
2023/01/14 15:42:30;;;;;;;;;;;8.20;99.90;;;;;;5089258;27;19924;-72
2023/01/14 15:45:01;;;;;;;;;;;8.20;99.90;;;;;;5106285;27;19943;-71
2023/01/14 15:47:32;;;;;;;;;;;8.20;99.90;;;;;;5103827;27;20417;-71
2023/01/14 15:50:01;;;;;;;;;;;8.20;99.90;;;;;;5068813;27;19930;-71
2023/01/14 15:52:37;;;;;;;;;;;8.20;99.90;;;;;;5103353;27;19977;-72